createdAt,value
2019-03-27T00:02:18.972Z,6.37
2019-03-27T00:05:31.058Z,7.20
2019-03-27T00:08:15.826Z,6.57
2019-03-27T00:11:16.183Z,6.60
2019-03-27T00:14:01.369Z,7.50
2019-03-27T00:16:54.601Z,7.90
2019-03-27T00:23:00.049Z,8.70
2019-03-27T00:25:36.716Z,8.60
2019-03-27T00:28:19.822Z,8.63
2019-03-27T00:30:58.346Z,8.10
2019-03-27T00:33:38.050Z,8.63
2019-03-27T00:36:16.702Z,8.67
2019-03-27T00:39:11.097Z,8.20
2019-03-27T00:58:14.366Z,8.00
2019-03-27T01:00:54.402Z,8.90
2019-03-27T01:04:10.723Z,9.90
2019-03-27T01:08:23.893Z,8.13
2019-03-27T03:03:25.264Z,17.83
2019-03-27T03:18:25.676Z,19.63
2019-03-27T03:57:47.244Z,20.47
2019-03-27T05:14:27.695Z,18.93
2019-03-27T05:20:06.414Z,17.97
2019-03-27T06:10:04.345Z,19.03
2019-03-27T06:20:56.693Z,17.40
2019-03-27T06:58:02.031Z,13.10
2019-03-27T07:00:36.708Z,12.87
2019-03-27T07:03:07.646Z,11.53
2019-03-27T07:05:37.411Z,12.20
2019-03-27T07:08:07.461Z,12.53
2019-03-27T07:10:37.346Z,11.60
2019-03-27T07:13:12.109Z,10.77
2019-03-27T07:15:54.844Z,11.00
2019-03-27T07:18:40.169Z,11.87
2019-03-27T07:21:08.275Z,11.47
2019-03-27T07:23:46.360Z,10.73
2019-03-27T07:26:26.013Z,11.63
2019-03-27T07:29:11.927Z,10.30
2019-03-27T07:31:54.993Z,9.93
2019-03-27T07:35:01.458Z,8.53
2019-03-27T07:41:01.540Z,9.00
2019-03-27T07:43:40.805Z,8.77
2019-03-27T07:46:10.784Z,7.90
2019-03-27T07:49:06.973Z,8.40
2019-03-27T07:54:53.310Z,8.53
2019-03-27T07:57:23.226Z,9.03
2019-03-27T08:54:22.883Z,10.30
2019-03-27T08:56:55.286Z,9.40
2019-03-27T08:59:25.579Z,9.67
2019-03-27T09:02:03.037Z,10.07
2019-03-27T09:04:33.356Z,10.00
2019-03-27T09:07:03.697Z,10.27
2019-03-27T09:09:42.058Z,11.53
2019-03-27T09:12:15.595Z,10.60
2019-03-27T09:15:21.106Z,8.97
2019-03-27T09:17:24.664Z,9.90
2019-03-27T09:19:55.266Z,10.17
2019-03-27T09:26:23.721Z,12.03
2019-03-27T09:28:58.274Z,10.50
2019-03-27T09:34:52.350Z,9.20
2019-03-27T09:37:27.316Z,8.67
2019-03-27T09:39:58.368Z,8.57
2019-03-27T09:43:10.671Z,8.80
2019-03-27T09:48:21.193Z,7.50
2019-03-27T09:54:51.512Z,7.70
2019-03-27T09:57:21.433Z,7.73
2019-03-27T09:59:57.754Z,7.13
2019-03-27T10:02:30.085Z,6.70
2019-03-27T10:05:28.248Z,6.70
2019-03-27T10:14:28.559Z,6.80
2019-03-27T10:17:03.159Z,6.77
2019-03-27T10:20:13.564Z,6.43
2019-03-27T10:23:08.180Z,6.80
2019-03-27T10:25:30.405Z,7.80
2019-03-27T10:28:06.197Z,8.93
2019-03-27T10:30:41.868Z,6.87
2019-03-27T10:34:23.078Z,8.87
2019-03-27T10:37:40.475Z,7.83
2019-03-27T10:44:17.427Z,7.40
2019-03-27T10:46:51.733Z,7.33
2019-03-27T11:00:18.838Z,6.77
2019-03-27T11:21:46.734Z,5.93
2019-03-27T11:55:53.984Z,4.43
2019-03-27T12:04:41.634Z,4.37
2019-03-27T12:05:16.662Z,4.17
2019-03-27T12:07:11.599Z,4.20
2019-03-27T12:16:09.403Z,4.10
2019-03-27T12:25:47.811Z,3.60
2019-03-27T12:34:46.228Z,3.00
2019-03-27T12:37:34.126Z,3.07
2019-03-27T12:40:15.981Z,3.00
2019-03-27T12:50:08.086Z,2.20
2019-03-27T12:55:32.383Z,2.17
2019-03-27T12:58:04.831Z,1.87
2019-03-27T13:00:36.613Z,2.10
2019-03-27T13:08:44.914Z,2.87
2019-03-27T13:11:22.268Z,2.60
2019-03-27T13:14:19.989Z,2.40
2019-03-27T13:20:52.174Z,2.83
2019-03-27T13:24:03.738Z,2.80
2019-03-27T13:27:02.762Z,1.60
2019-03-27T13:32:47.513Z,2.63
2019-03-27T13:38:50.967Z,1.80
2019-03-27T13:41:37.974Z,1.70
2019-03-27T13:47:34.429Z,1.40
2019-03-27T13:50:28.651Z,1.13
2019-03-27T13:59:18.778Z,1.57
2019-03-27T14:01:58.161Z,1.40
2019-03-27T14:04:35.513Z,1.40
2019-03-27T14:07:05.402Z,1.80
2019-03-27T14:10:00.379Z,1.30
2019-03-27T14:18:49.122Z,1.97
2019-03-27T14:21:23.255Z,3.27
2019-03-27T14:24:13.907Z,2.10
2019-03-27T14:27:02.552Z,1.90
2019-03-27T14:41:38.768Z,2.53
2019-03-27T14:44:23.081Z,3.10
2019-03-27T14:46:58.086Z,3.00
2019-03-27T14:49:37.473Z,2.80
2019-03-27T14:55:06.341Z,2.90
2019-03-27T14:58:04.026Z,3.43
2019-03-27T15:00:40.666Z,2.80
2019-03-27T15:03:20.756Z,7.97
2019-03-27T15:05:55.663Z,3.63
2019-03-27T15:08:27.473Z,3.50
2019-03-27T15:11:02.697Z,3.70
2019-03-27T15:13:46.865Z,3.43
2019-03-27T15:16:26.878Z,3.93
2019-03-27T15:19:05.320Z,7.80
2019-03-27T15:21:40.331Z,3.90
2019-03-27T15:24:15.172Z,3.97
2019-03-27T15:26:53.274Z,4.27
2019-03-27T15:29:30.513Z,4.47
2019-03-27T15:32:16.946Z,4.10
2019-03-27T15:34:50.476Z,4.13
2019-03-27T15:37:31.844Z,4.27
2019-03-27T15:40:07.041Z,3.83
2019-03-27T15:42:53.373Z,3.60
2019-03-27T15:45:29.168Z,3.83
2019-03-27T15:48:09.613Z,3.63
2019-03-27T15:53:41.962Z,4.10
2019-03-27T15:56:25.839Z,4.27
2019-03-27T15:58:57.268Z,4.23
2019-03-27T16:01:27.472Z,4.20
2019-03-27T16:04:04.308Z,4.00
2019-03-27T16:06:37.408Z,4.13
2019-03-27T16:09:19.018Z,3.53
2019-03-27T16:11:51.468Z,4.00
2019-03-27T16:14:26.014Z,3.70
2019-03-27T16:17:13.318Z,3.80
2019-03-27T16:19:44.072Z,4.10
2019-03-27T16:22:14.069Z,3.63
2019-03-27T16:24:44.023Z,3.37
2019-03-27T16:27:24.165Z,8.97
2019-03-27T16:30:16.877Z,3.40
2019-03-27T16:32:51.192Z,5.50
2019-03-27T16:35:29.662Z,3.90
2019-03-27T16:38:08.028Z,3.23
2019-03-27T16:40:51.660Z,2.93
2019-03-27T16:46:36.718Z,3.60
2019-03-27T16:49:08.866Z,3.83
2019-03-27T16:51:49.623Z,5.43
2019-03-27T16:54:28.181Z,3.37
2019-03-27T16:57:05.229Z,3.50
2019-03-27T16:59:40.705Z,3.20
2019-03-27T17:02:15.885Z,3.60
2019-03-27T17:04:58.040Z,3.23
2019-03-27T17:07:56.806Z,3.23
2019-03-27T17:10:16.956Z,3.67
2019-03-27T17:12:57.044Z,3.47
2019-03-27T17:15:38.600Z,3.07
2019-03-27T17:18:20.267Z,3.27
2019-03-27T17:21:02.243Z,3.07
2019-03-27T17:23:35.693Z,3.37
2019-03-27T17:26:27.153Z,3.53
2019-03-27T17:29:59.279Z,3.37
2019-03-27T18:22:07.204Z,4.17
2019-03-27T18:24:32.705Z,4.47
2019-03-27T18:43:45.718Z,4.03
2019-03-27T18:47:04.708Z,3.67
2019-03-27T19:04:26.631Z,3.77
2019-03-27T19:07:09.996Z,3.97
2019-03-27T19:12:58.392Z,4.70
2019-03-27T19:15:47.960Z,3.83
2019-03-27T19:18:30.115Z,4.17
2019-03-27T19:22:59.652Z,4.50
2019-03-27T19:24:17.067Z,3.80
2019-03-27T19:27:03.316Z,3.80
2019-03-27T19:29:45.138Z,4.43
2019-03-27T19:32:41.711Z,4.40
2019-03-27T19:38:28.532Z,4.60
2019-03-27T19:50:03.195Z,5.37
2019-03-27T20:11:41.051Z,6.10
2019-03-27T20:14:27.082Z,5.80
2019-03-27T20:20:22.389Z,6.37
2019-03-27T21:11:13.884Z,9.67
2019-03-27T21:20:10.160Z,10.00
2019-03-27T21:29:13.658Z,11.00
2019-03-27T22:01:45.121Z,11.37
2019-03-27T22:40:12.475Z,11.97
